sensor_id;sensor_type;location;lat;lon;timestamp;pressure;altitude;pressure_sealevel;temperature;humidity
9415;BME280;4746;35.664;139.738;2023-02-11T00:01:34;100535.16;;;13.31;40.05
9415;BME280;4746;35.664;139.738;2023-02-11T00:04:03;100529.16;;;13.35;40.16
9415;BME280;4746;35.664;139.738;2023-02-11T00:06:33;100536.88;;;13.38;39.69
9415;BME280;4746;35.664;139.738;2023-02-11T00:09:02;100548.03;;;13.42;39.71
9415;BME280;4746;35.664;139.738;2023-02-11T00:11:30;100548.03;;;13.46;39.57
9415;BME280;4746;35.664;139.738;2023-02-11T00:14:00;100539.47;;;13.53;39.81
9415;BME280;4746;35.664;139.738;2023-02-11T00:16:29;100555.78;;;13.58;40.07
9415;BME280;4746;35.664;139.738;2023-02-11T00:19:02;100558.34;;;13.63;39.64
9415;BME280;4746;35.664;139.738;2023-02-11T00:21:32;100564.38;;;13.60;39.82
9415;BME280;4746;35.664;139.738;2023-02-11T00:24:01;100566.06;;;13.64;39.65
9415;BME280;4746;35.664;139.738;2023-02-11T00:26:33;100567.78;;;13.74;39.28
9415;BME280;4746;35.664;139.738;2023-02-11T00:29:02;100560.06;;;13.74;39.11
9415;BME280;4746;35.664;139.738;2023-02-11T00:31:30;100563.47;;;13.79;38.74
9415;BME280;4746;35.664;139.738;2023-02-11T00:34:01;100566.94;;;13.86;38.83
9415;BME280;4746;35.664;139.738;2023-02-11T00:36:29;100572.94;;;13.89;38.49
9415;BME280;4746;35.664;139.738;2023-02-11T00:38:59;100556.59;;;13.88;38.37
9415;BME280;4746;35.664;139.738;2023-02-11T00:41:28;100549.75;;;13.79;38.80
9415;BME280;4746;35.664;139.738;2023-02-11T00:43:56;100560.06;;;13.85;38.52
9415;BME280;4746;35.664;139.738;2023-02-11T00:46:24;100556.63;;;13.90;38.40
9415;BME280;4746;35.664;139.738;2023-02-11T00:48:51;100561.78;;;13.91;38.33
9415;BME280;4746;35.664;139.738;2023-02-11T00:51:28;100560.91;;;14.00;38.42
9415;BME280;4746;35.664;139.738;2023-02-11T00:53:56;100578.06;;;14.04;38.27
9415;BME280;4746;35.664;139.738;2023-02-11T00:56:23;100577.22;;;14.08;37.54
9415;BME280;4746;35.664;139.738;2023-02-11T00:58:51;100572.94;;;14.16;37.61
9415;BME280;4746;35.664;139.738;2023-02-11T01:01:19;100593.53;;;14.25;37.55
9415;BME280;4746;35.664;139.738;2023-02-11T01:03:47;100606.41;;;14.31;37.35
9415;BME280;4746;35.664;139.738;2023-02-11T01:06:15;100584.03;;;14.39;37.22
9415;BME280;4746;35.664;139.738;2023-02-11T01:08:43;100588.31;;;14.46;37.26
9415;BME280;4746;35.664;139.738;2023-02-11T01:11:18;100577.13;;;14.58;37.14
9415;BME280;4746;35.664;139.738;2023-02-11T01:13:49;100589.13;;;14.62;36.58
9415;BME280;4746;35.664;139.738;2023-02-11T01:16:18;100577.94;;;14.68;36.73
9415;BME280;4746;35.664;139.738;2023-02-11T01:18:47;100579.66;;;14.75;36.55
9415;BME280;4746;35.664;139.738;2023-02-11T01:21:15;100578.75;;;14.80;36.00
9415;BME280;4746;35.664;139.738;2023-02-11T01:23:42;100563.25;;;14.82;36.19
9415;BME280;4746;35.664;139.738;2023-02-11T01:26:10;100593.34;;;14.87;35.83
9415;BME280;4746;35.664;139.738;2023-02-11T01:28:38;100583.91;;;14.85;35.38
9415;BME280;4746;35.664;139.738;2023-02-11T01:31:05;100588.22;;;14.81;35.52
9415;BME280;4746;35.664;139.738;2023-02-11T01:33:33;100594.25;;;14.73;35.46
9415;BME280;4746;35.664;139.738;2023-02-11T01:36:03;100593.41;;;14.72;35.51
9415;BME280;4746;35.664;139.738;2023-02-11T01:38:32;100585.66;;;14.74;35.46
9415;BME280;4746;35.664;139.738;2023-02-11T01:41:07;100586.50;;;14.77;35.72
9415;BME280;4746;35.664;139.738;2023-02-11T01:43:44;100601.91;;;14.92;35.19
9415;BME280;4746;35.664;139.738;2023-02-11T01:49:14;100605.31;;;14.97;35.16
9415;BME280;4746;35.664;139.738;2023-02-11T01:51:56;100592.44;;;14.97;35.03
9415;BME280;4746;35.664;139.738;2023-02-11T01:54:31;100599.31;;;14.94;34.44
9415;BME280;4746;35.664;139.738;2023-02-11T01:57:24;100611.38;;;14.95;34.26
9415;BME280;4746;35.664;139.738;2023-02-11T02:03:18;100579.47;;;15.09;34.17
9415;BME280;4746;35.664;139.738;2023-02-11T02:06:18;100596.66;;;15.13;34.04
9415;BME280;4746;35.664;139.738;2023-02-11T02:09:14;100596.63;;;15.19;33.37
9415;BME280;4746;35.664;139.738;2023-02-11T02:11:43;100584.59;;;15.24;33.64
9415;BME280;4746;35.664;139.738;2023-02-11T02:14:10;100593.13;;;15.32;33.29
9415;BME280;4746;35.664;139.738;2023-02-11T02:16:38;100577.59;;;15.41;33.55
9415;BME280;4746;35.664;139.738;2023-02-11T02:25:28;100572.00;;;15.92;33.31
9415;BME280;4746;35.664;139.738;2023-02-11T02:28:20;100550.44;;;15.96;33.37
9415;BME280;4746;35.664;139.738;2023-02-11T02:34:08;100534.75;;;16.15;32.51
9415;BME280;4746;35.664;139.738;2023-02-11T02:37:39;100529.56;;;16.13;32.63
9415;BME280;4746;35.664;139.738;2023-02-11T02:40:10;100539.94;;;16.12;31.69
9415;BME280;4746;35.664;139.738;2023-02-11T02:42:43;100557.22;;;16.08;31.92
9415;BME280;4746;35.664;139.738;2023-02-11T02:45:13;100574.28;;;16.23;32.18
9415;BME280;4746;35.664;139.738;2023-02-11T02:47:42;100583.63;;;16.40;32.12
9415;BME280;4746;35.664;139.738;2023-02-11T02:50:14;100577.44;;;16.55;31.88
9415;BME280;4746;35.664;139.738;2023-02-11T03:04:56;100601.69;;;17.17;31.96
9415;BME280;4746;35.664;139.738;2023-02-11T03:08:06;100611.84;;;17.35;32.07
9415;BME280;4746;35.664;139.738;2023-02-11T03:10:44;100603.03;;;17.44;32.01
9415;BME280;4746;35.664;139.738;2023-02-11T03:13:16;100613.41;;;17.44;31.51
9415;BME280;4746;35.664;139.738;2023-02-11T03:15:49;100608.97;;;17.51;31.52
9415;BME280;4746;35.664;139.738;2023-02-11T03:18:25;100590.88;;;17.49;31.30
9415;BME280;4746;35.664;139.738;2023-02-11T03:20:56;100596.84;;;17.54;31.98
9415;BME280;4746;35.664;139.738;2023-02-11T03:23:34;100600.00;;;17.74;31.36
9415;BME280;4746;35.664;139.738;2023-02-11T03:26:11;100608.50;;;17.81;31.59
9415;BME280;4746;35.664;139.738;2023-02-11T03:29:13;100632.63;;;17.86;31.39
9415;BME280;4746;35.664;139.738;2023-02-11T03:40:04;100636.13;;;18.36;30.30
9415;BME280;4746;35.664;139.738;2023-02-11T03:42:41;100626.25;;;18.56;30.43
9415;BME280;4746;35.664;139.738;2023-02-11T03:45:15;100631.09;;;18.74;29.57
9415;BME280;4746;35.664;139.738;2023-02-11T03:48:15;100635.28;;;18.81;29.28
9415;BME280;4746;35.664;139.738;2023-02-11T03:50:41;100641.09;;;18.93;29.38
9415;BME280;4746;35.664;139.738;2023-02-11T03:53:11;100640.13;;;18.98;29.21
9415;BME280;4746;35.664;139.738;2023-02-11T03:55:42;100633.00;;;19.09;28.73
9415;BME280;4746;35.664;139.738;2023-02-11T03:58:10;100645.75;;;19.20;28.33
9415;BME280;4746;35.664;139.738;2023-02-11T04:00:41;100643.00;;;19.27;28.14
9415;BME280;4746;35.664;139.738;2023-02-11T04:03:11;100639.16;;;19.45;28.21
9415;BME280;4746;35.664;139.738;2023-02-11T04:05:39;100643.81;;;20.06;27.56
9415;BME280;4746;35.664;139.738;2023-02-11T04:08:07;100648.63;;;20.86;26.67
9415;BME280;4746;35.664;139.738;2023-02-11T04:10:35;100657.47;;;21.68;25.89
9415;BME280;4746;35.664;139.738;2023-02-11T04:13:03;100651.50;;;22.44;25.38
9415;BME280;4746;35.664;139.738;2023-02-11T04:15:32;100661.75;;;22.99;24.45
9415;BME280;4746;35.664;139.738;2023-02-11T04:17:59;100670.81;;;23.37;24.07
9415;BME280;4746;35.664;139.738;2023-02-11T04:20:29;100680.19;;;23.64;23.58
9415;BME280;4746;35.664;139.738;2023-02-11T04:22:57;100699.56;;;23.60;23.61
9415;BME280;4746;35.664;139.738;2023-02-11T04:25:24;100687.56;;;23.99;23.51
9415;BME280;4746;35.664;139.738;2023-02-11T04:27:53;100695.75;;;24.54;23.17
9415;BME280;4746;35.664;139.738;2023-02-11T04:30:20;100691.75;;;24.46;23.09
9415;BME280;4746;35.664;139.738;2023-02-11T04:32:48;100689.50;;;24.15;23.00
9415;BME280;4746;35.664;139.738;2023-02-11T04:35:16;100690.59;;;24.52;22.67
9415;BME280;4746;35.664;139.738;2023-02-11T04:37:43;100686.16;;;26.06;20.91
9415;BME280;4746;35.664;139.738;2023-02-11T04:40:11;100675.56;;;28.19;18.95
9415;BME280;4746;35.664;139.738;2023-02-11T04:42:39;100676.50;;;29.88;17.85
9415;BME280;4746;35.664;139.738;2023-02-11T04:45:07;100673.41;;;31.48;17.25
9415;BME280;4746;35.664;139.738;2023-02-11T04:47:34;100658.72;;;32.95;15.77
9415;BME280;4746;35.664;139.738;2023-02-11T04:50:04;100658.63;;;33.29;15.23
9415;BME280;4746;35.664;139.738;2023-02-11T04:52:32;100662.47;;;33.03;14.92
9415;BME280;4746;35.664;139.738;2023-02-11T04:54:59;100661.59;;;33.03;14.85
9415;BME280;4746;35.664;139.738;2023-02-11T04:57:27;100660.66;;;33.80;15.18
9415;BME280;4746;35.664;139.738;2023-02-11T04:59:54;100658.09;;;34.32;14.74
9415;BME280;4746;35.664;139.738;2023-02-11T05:02:22;100657.38;;;34.61;14.83
9415;BME280;4746;35.664;139.738;2023-02-11T05:04:49;100657.94;;;34.85;13.47
9415;BME280;4746;35.664;139.738;2023-02-11T05:07:17;100661.38;;;34.96;13.77
9415;BME280;4746;35.664;139.738;2023-02-11T05:09:44;100656.75;;;34.98;13.73
9415;BME280;4746;35.664;139.738;2023-02-11T05:12:12;100661.59;;;35.34;13.64
9415;BME280;4746;35.664;139.738;2023-02-11T05:14:40;100663.22;;;36.04;13.10
9415;BME280;4746;35.664;139.738;2023-02-11T05:17:07;100659.88;;;36.59;13.11
9415;BME280;4746;35.664;139.738;2023-02-11T05:19:35;100651.47;;;36.44;13.12
9415;BME280;4746;35.664;139.738;2023-02-11T05:22:03;100643.59;;;36.43;12.71
9415;BME280;4746;35.664;139.738;2023-02-11T05:24:33;100643.00;;;36.11;12.77
9415;BME280;4746;35.664;139.738;2023-02-11T05:27:01;100634.00;;;36.12;12.77
9415;BME280;4746;35.664;139.738;2023-02-11T05:29:31;100638.22;;;36.14;12.60
9415;BME280;4746;35.664;139.738;2023-02-11T05:31:59;100640.75;;;36.25;12.65
9415;BME280;4746;35.664;139.738;2023-02-11T05:34:27;100641.72;;;36.34;12.11
9415;BME280;4746;35.664;139.738;2023-02-11T05:36:54;100637.66;;;36.02;12.64
9415;BME280;4746;35.664;139.738;2023-02-11T05:39:22;100637.41;;;36.14;12.60
9415;BME280;4746;35.664;139.738;2023-02-11T05:41:49;100643.59;;;36.52;11.96
9415;BME280;4746;35.664;139.738;2023-02-11T05:44:17;100648.22;;;36.41;11.87
9415;BME280;4746;35.664;139.738;2023-02-11T05:46:47;100655.59;;;35.81;12.56
9415;BME280;4746;35.664;139.738;2023-02-11T05:49:16;100654.69;;;35.71;12.57
9415;BME280;4746;35.664;139.738;2023-02-11T05:51:44;100658.50;;;35.29;12.97
9415;BME280;4746;35.664;139.738;2023-02-11T05:54:11;100667.06;;;35.42;12.73
9415;BME280;4746;35.664;139.738;2023-02-11T05:56:39;100668.88;;;35.62;12.07
9415;BME280;4746;35.664;139.738;2023-02-11T05:59:07;100679.84;;;35.38;12.54
9415;BME280;4746;35.664;139.738;2023-02-11T06:01:35;100691.06;;;35.12;12.23
9415;BME280;4746;35.664;139.738;2023-02-11T06:04:02;100698.00;;;35.24;12.06
9415;BME280;4746;35.664;139.738;2023-02-11T06:06:30;100699.41;;;35.78;12.84
9415;BME280;4746;35.664;139.738;2023-02-11T06:08:57;100699.19;;;36.38;12.03
9415;BME280;4746;35.664;139.738;2023-02-11T06:11:25;100714.53;;;37.02;11.92
9415;BME280;4746;35.664;139.738;2023-02-11T06:13:52;100711.47;;;37.43;12.05
9415;BME280;4746;35.664;139.738;2023-02-11T06:16:20;100701.25;;;37.65;11.67
9415;BME280;4746;35.664;139.738;2023-02-11T06:18:49;100693.69;;;37.51;11.60
9415;BME280;4746;35.664;139.738;2023-02-11T06:21:17;100692.38;;;37.38;11.64
9415;BME280;4746;35.664;139.738;2023-02-11T06:23:45;100701.56;;;37.53;11.32
9415;BME280;4746;35.664;139.738;2023-02-11T06:26:19;100699.53;;;37.73;11.48
9415;BME280;4746;35.664;139.738;2023-02-11T06:28:47;100711.28;;;38.17;11.01
9415;BME280;4746;35.664;139.738;2023-02-11T06:31:16;100719.84;;;38.55;11.02
9415;BME280;4746;35.664;139.738;2023-02-11T06:33:44;100713.63;;;38.54;10.80
9415;BME280;4746;35.664;139.738;2023-02-11T06:36:19;100722.78;;;38.44;10.85
9415;BME280;4746;35.664;139.738;2023-02-11T06:38:48;100730.22;;;37.69;11.44
9415;BME280;4746;35.664;139.738;2023-02-11T06:41:17;100730.91;;;36.89;11.79
9415;BME280;4746;35.664;139.738;2023-02-11T06:43:48;100736.63;;;36.28;11.66
9415;BME280;4746;35.664;139.738;2023-02-11T06:46:16;100735.38;;;35.33;12.37
9415;BME280;4746;35.664;139.738;2023-02-11T06:48:44;100745.16;;;33.88;13.21
9415;BME280;4746;35.664;139.738;2023-02-11T06:51:13;100741.41;;;33.24;13.97
9415;BME280;4746;35.664;139.738;2023-02-11T06:53:46;100746.09;;;32.87;13.67
9415;BME280;4746;35.664;139.738;2023-02-11T06:56:18;100750.56;;;33.20;13.37
9415;BME280;4746;35.664;139.738;2023-02-11T06:58:46;100742.09;;;33.37;14.07
9415;BME280;4746;35.664;139.738;2023-02-11T07:01:15;100752.03;;;34.01;13.76
9415;BME280;4746;35.664;139.738;2023-02-11T07:03:44;100746.84;;;34.84;13.59
9415;BME280;4746;35.664;139.738;2023-02-11T07:06:17;100754.88;;;34.42;13.92
9415;BME280;4746;35.664;139.738;2023-02-11T07:08:47;100753.44;;;34.27;13.44
9415;BME280;4746;35.664;139.738;2023-02-11T07:11:23;100766.53;;;34.30;13.92
9415;BME280;4746;35.664;139.738;2023-02-11T07:13:54;100773.84;;;34.06;13.76
9415;BME280;4746;35.664;139.738;2023-02-11T07:16:22;100774.22;;;33.13;14.24
9415;BME280;4746;35.664;139.738;2023-02-11T07:18:50;100777.38;;;31.14;15.15
9415;BME280;4746;35.664;139.738;2023-02-11T07:21:20;100792.13;;;29.57;16.35
9415;BME280;4746;35.664;139.738;2023-02-11T07:23:50;100788.19;;;28.47;17.41
9415;BME280;4746;35.664;139.738;2023-02-11T07:26:21;100812.56;;;27.56;18.00
9415;BME280;4746;35.664;139.738;2023-02-11T07:28:49;100813.56;;;26.86;18.60
9415;BME280;4746;35.664;139.738;2023-02-11T07:31:21;100827.44;;;26.36;19.15
9415;BME280;4746;35.664;139.738;2023-02-11T07:33:52;100826.25;;;26.78;19.17
9415;BME280;4746;35.664;139.738;2023-02-11T07:36:20;100820.66;;;28.01;18.43
9415;BME280;4746;35.664;139.738;2023-02-11T07:38:48;100811.00;;;28.79;17.88
9415;BME280;4746;35.664;139.738;2023-02-11T07:41:19;100830.63;;;29.33;17.13
9415;BME280;4746;35.664;139.738;2023-02-11T07:43:48;100829.25;;;29.26;17.32
9415;BME280;4746;35.664;139.738;2023-02-11T07:46:22;100832.97;;;29.22;17.29
9415;BME280;4746;35.664;139.738;2023-02-11T07:48:50;100837.53;;;29.20;17.26
9415;BME280;4746;35.664;139.738;2023-02-11T07:51:27;100843.66;;;28.30;17.43
9415;BME280;4746;35.664;139.738;2023-02-11T07:53:57;100844.28;;;26.86;18.67
9415;BME280;4746;35.664;139.738;2023-02-11T07:56:28;100846.81;;;25.59;19.57
9415;BME280;4746;35.664;139.738;2023-02-11T07:59:00;100859.78;;;24.59;20.46
9415;BME280;4746;35.664;139.738;2023-02-11T08:01:30;100863.06;;;23.73;21.65
9415;BME280;4746;35.664;139.738;2023-02-11T08:04:00;100873.38;;;23.03;22.41
9415;BME280;4746;35.664;139.738;2023-02-11T08:06:30;100875.41;;;22.39;22.73
9415;BME280;4746;35.664;139.738;2023-02-11T08:09:06;100881.31;;;21.86;23.30
9415;BME280;4746;35.664;139.738;2023-02-11T08:11:35;100884.41;;;21.37;24.11
9415;BME280;4746;35.664;139.738;2023-02-11T08:14:03;100900.38;;;20.90;24.23
9415;BME280;4746;35.664;139.738;2023-02-11T08:16:36;100906.53;;;20.48;24.86
9415;BME280;4746;35.664;139.738;2023-02-11T08:19:14;100922.19;;;20.06;25.17
9415;BME280;4746;35.664;139.738;2023-02-11T08:21:43;100936.03;;;19.63;25.71
9415;BME280;4746;35.664;139.738;2023-02-11T08:24:13;100932.31;;;19.26;26.52
9415;BME280;4746;35.664;139.738;2023-02-11T08:26:40;100943.09;;;18.99;26.54
9415;BME280;4746;35.664;139.738;2023-02-11T08:29:12;100944.38;;;18.75;26.93
9415;BME280;4746;35.664;139.738;2023-02-11T08:31:43;100943.88;;;18.49;27.29
9415;BME280;4746;35.664;139.738;2023-02-11T08:34:13;100941.59;;;18.23;27.37
9415;BME280;4746;35.664;139.738;2023-02-11T08:36:42;100941.00;;;17.99;27.95
9415;BME280;4746;35.664;139.738;2023-02-11T08:39:20;100944.63;;;17.83;28.16
9415;BME280;4746;35.664;139.738;2023-02-11T08:41:51;100946.53;;;17.69;28.87
9415;BME280;4746;35.664;139.738;2023-02-11T08:44:21;100949.22;;;17.59;29.17
9415;BME280;4746;35.664;139.738;2023-02-11T08:46:49;100951.03;;;17.49;29.25
9415;BME280;4746;35.664;139.738;2023-02-11T08:49:17;100944.19;;;17.42;29.91
9415;BME280;4746;35.664;139.738;2023-02-11T08:51:46;100949.44;;;17.35;30.03
9415;BME280;4746;35.664;139.738;2023-02-11T08:54:14;100953.81;;;17.29;29.66
9415;BME280;4746;35.664;139.738;2023-02-11T08:56:43;100964.16;;;17.26;29.92
9415;BME280;4746;35.664;139.738;2023-02-11T08:59:13;100969.38;;;17.23;30.17
9415;BME280;4746;35.664;139.738;2023-02-11T09:01:43;100975.44;;;17.19;30.19
9415;BME280;4746;35.664;139.738;2023-02-11T09:04:13;100974.59;;;17.14;30.14
9415;BME280;4746;35.664;139.738;2023-02-11T09:06:43;100972.03;;;17.09;30.51
9415;BME280;4746;35.664;139.738;2023-02-11T09:09:15;100978.09;;;17.07;30.41
9415;BME280;4746;35.664;139.738;2023-02-11T09:11:44;100985.94;;;16.99;30.60
9415;BME280;4746;35.664;139.738;2023-02-11T09:14:21;100995.44;;;16.96;30.55
9415;BME280;4746;35.664;139.738;2023-02-11T09:16:50;101007.56;;;16.89;30.58
9415;BME280;4746;35.664;139.738;2023-02-11T09:19:19;101006.72;;;16.86;30.63
9415;BME280;4746;35.664;139.738;2023-02-11T09:21:47;101006.78;;;16.78;30.90
9415;BME280;4746;35.664;139.738;2023-02-11T09:24:15;101012.88;;;16.70;31.27
9415;BME280;4746;35.664;139.738;2023-02-11T09:26:43;101023.22;;;16.63;30.91
9415;BME280;4746;35.664;139.738;2023-02-11T09:29:11;101028.44;;;16.55;31.18
9415;BME280;4746;35.664;139.738;2023-02-11T09:31:38;101027.63;;;16.49;31.76
9415;BME280;4746;35.664;139.738;2023-02-11T09:34:06;101030.22;;;16.43;31.73
9415;BME280;4746;35.664;139.738;2023-02-11T09:36:37;101028.53;;;16.36;31.74
9415;BME280;4746;35.664;139.738;2023-02-11T09:39:14;101033.72;;;16.28;32.26
9415;BME280;4746;35.664;139.738;2023-02-11T09:44:52;101048.41;;;16.05;32.61
9415;BME280;4746;35.664;139.738;2023-02-11T09:50:17;101054.44;;;15.88;32.83
9415;BME280;4746;35.664;139.738;2023-02-11T09:52:59;101056.16;;;15.79;33.27
9415;BME280;4746;35.664;139.738;2023-02-11T09:55:39;101063.94;;;15.79;33.12
9415;BME280;4746;35.664;139.738;2023-02-11T09:58:29;101065.66;;;15.74;33.56
9415;BME280;4746;35.664;139.738;2023-02-11T10:21:35;101085.44;;;15.39;34.28
9415;BME280;4746;35.664;139.738;2023-02-11T10:24:13;101075.09;;;15.39;34.47
9415;BME280;4746;35.664;139.738;2023-02-11T10:26:44;101075.13;;;15.36;34.85
9415;BME280;4746;35.664;139.738;2023-02-11T10:29:56;101082.88;;;15.42;34.75
9415;BME280;4746;35.664;139.738;2023-02-11T10:32:43;101096.63;;;15.36;34.74
9415;BME280;4746;35.664;139.738;2023-02-11T10:35:20;101104.38;;;15.35;34.70
9415;BME280;4746;35.664;139.738;2023-02-11T10:37:49;101097.47;;;15.34;34.98
9415;BME280;4746;35.664;139.738;2023-02-11T10:40:27;101102.63;;;15.37;35.00
9415;BME280;4746;35.664;139.738;2023-02-11T10:43:03;101094.06;;;15.33;35.22
9415;BME280;4746;35.664;139.738;2023-02-11T10:45:51;101101.78;;;15.32;35.11
9415;BME280;4746;35.664;139.738;2023-02-11T10:48:51;101105.22;;;15.28;35.12
9415;BME280;4746;35.664;139.738;2023-02-11T10:51:28;101107.81;;;15.25;35.58
9415;BME280;4746;35.664;139.738;2023-02-11T10:56:50;101123.25;;;15.21;35.52
9415;BME280;4746;35.664;139.738;2023-02-11T10:59:38;101126.66;;;15.17;35.47
9415;BME280;4746;35.664;139.738;2023-02-11T11:02:30;101135.25;;;15.14;35.69
9415;BME280;4746;35.664;139.738;2023-02-11T11:05:16;101144.72;;;15.09;35.99
9415;BME280;4746;35.664;139.738;2023-02-11T11:08:01;101142.13;;;15.09;35.98
9415;BME280;4746;35.664;139.738;2023-02-11T11:10:44;101149.88;;;15.06;35.91
9415;BME280;4746;35.664;139.738;2023-02-11T11:13:33;101160.19;;;15.06;36.24
9415;BME280;4746;35.664;139.738;2023-02-11T11:16:15;101149.00;;;15.04;36.17
9415;BME280;4746;35.664;139.738;2023-02-11T11:18:47;101149.00;;;15.01;36.28
9415;BME280;4746;35.664;139.738;2023-02-11T11:21:23;101156.72;;;15.00;36.37
9415;BME280;4746;35.664;139.738;2023-02-11T11:24:00;101165.28;;;14.90;36.56
9415;BME280;4746;35.664;139.738;2023-02-11T11:26:42;101167.03;;;14.95;36.61
9415;BME280;4746;35.664;139.738;2023-02-11T11:29:47;101161.00;;;14.93;36.37
9415;BME280;4746;35.664;139.738;2023-02-11T11:32:27;101167.84;;;14.91;36.64
9415;BME280;4746;35.664;139.738;2023-02-11T11:35:06;101171.28;;;14.90;36.69
9415;BME280;4746;35.664;139.738;2023-02-11T11:37:38;101167.84;;;14.88;36.80
9415;BME280;4746;35.664;139.738;2023-02-11T11:40:22;101172.16;;;14.92;36.86
9415;BME280;4746;35.664;139.738;2023-02-11T11:45:56;101164.44;;;14.89;37.36
9415;BME280;4746;35.664;139.738;2023-02-11T11:48:45;101154.09;;;14.89;37.31
9415;BME280;4746;35.664;139.738;2023-02-11T11:51:16;101151.50;;;14.83;37.29
9415;BME280;4746;35.664;139.738;2023-02-11T11:54:03;101136.88;;;14.88;37.40
9415;BME280;4746;35.664;139.738;2023-02-11T11:56:39;101148.91;;;14.86;37.61
9415;BME280;4746;35.664;139.738;2023-02-11T11:59:12;101142.91;;;14.90;37.63
9415;BME280;4746;35.664;139.738;2023-02-11T12:01:54;101136.00;;;14.86;37.75
9415;BME280;4746;35.664;139.738;2023-02-11T12:04:55;101131.69;;;14.85;37.08
9415;BME280;4746;35.664;139.738;2023-02-11T12:07:51;101142.88;;;14.83;37.88
9415;BME280;4746;35.664;139.738;2023-02-11T12:17:41;101155.75;;;14.78;37.68
9415;BME280;4746;35.664;139.738;2023-02-11T12:21:11;101160.91;;;14.75;37.95
9415;BME280;4746;35.664;139.738;2023-02-11T12:34:13;101178.94;;;14.69;38.03
9415;BME280;4746;35.664;139.738;2023-02-11T12:39:50;101186.69;;;14.72;38.55
9415;BME280;4746;35.664;139.738;2023-02-11T12:45:28;101190.13;;;14.74;38.72
9415;BME280;4746;35.664;139.738;2023-02-11T12:48:38;101191.00;;;14.79;38.36
9415;BME280;4746;35.664;139.738;2023-02-11T12:57:24;101191.03;;;14.82;38.46
9415;BME280;4746;35.664;139.738;2023-02-11T13:00:39;101189.31;;;14.81;38.72
9415;BME280;4746;35.664;139.738;2023-02-11T13:03:24;101195.34;;;14.83;38.46
9415;BME280;4746;35.664;139.738;2023-02-11T13:06:14;101190.16;;;14.82;38.63
9415;BME280;4746;35.664;139.738;2023-02-11T13:08:58;101191.91;;;14.81;38.73
9415;BME280;4746;35.664;139.738;2023-02-11T13:11:40;101201.38;;;14.82;38.49
9415;BME280;4746;35.664;139.738;2023-02-11T13:14:39;101198.78;;;14.82;38.70
9415;BME280;4746;35.664;139.738;2023-02-11T13:17:30;101199.63;;;14.81;38.85
9415;BME280;4746;35.664;139.738;2023-02-11T13:20:43;101204.84;;;14.86;38.43
9415;BME280;4746;35.664;139.738;2023-02-11T13:26:38;101201.34;;;14.78;39.23
9415;BME280;4746;35.664;139.738;2023-02-11T13:29:32;101198.75;;;14.79;38.82
9415;BME280;4746;35.664;139.738;2023-02-11T13:32:13;101197.88;;;14.76;38.98
9415;BME280;4746;35.664;139.738;2023-02-11T13:37:38;101194.47;;;14.80;38.59
9415;BME280;4746;35.664;139.738;2023-02-11T13:40:21;101196.16;;;14.76;38.84
9415;BME280;4746;35.664;139.738;2023-02-11T13:45:35;101205.66;;;14.80;38.93
9415;BME280;4746;35.664;139.738;2023-02-11T13:48:27;101222.00;;;14.82;39.08
9415;BME280;4746;35.664;139.738;2023-02-11T13:51:11;101224.59;;;14.82;38.79
9415;BME280;4746;35.664;139.738;2023-02-11T13:53:56;101224.63;;;14.88;39.12
9415;BME280;4746;35.664;139.738;2023-02-11T13:59:03;101227.25;;;14.94;38.71
9415;BME280;4746;35.664;139.738;2023-02-11T14:16:23;101239.28;;;15.00;38.75
9415;BME280;4746;35.664;139.738;2023-02-11T14:32:38;101259.94;;;15.00;38.67
9415;BME280;4746;35.664;139.738;2023-02-11T14:35:21;101268.56;;;15.02;38.98
9415;BME280;4746;35.664;139.738;2023-02-11T14:40:32;101271.19;;;15.08;38.83
9415;BME280;4746;35.664;139.738;2023-02-11T14:43:19;101266.88;;;15.08;38.59
9415;BME280;4746;35.664;139.738;2023-02-11T14:45:56;101268.59;;;15.08;38.60
9415;BME280;4746;35.664;139.738;2023-02-11T14:48:34;101266.88;;;15.08;38.54
9415;BME280;4746;35.664;139.738;2023-02-11T14:51:17;101272.91;;;15.10;38.71
9415;BME280;4746;35.664;139.738;2023-02-11T14:53:50;101274.66;;;15.11;38.74
9415;BME280;4746;35.664;139.738;2023-02-11T14:56:25;101264.31;;;15.13;38.42
9415;BME280;4746;35.664;139.738;2023-02-11T14:58:54;101266.91;;;15.14;38.77
9415;BME280;4746;35.664;139.738;2023-02-11T15:01:33;101276.41;;;15.18;38.64
9415;BME280;4746;35.664;139.738;2023-02-11T15:04:05;101276.38;;;15.12;38.64
9415;BME280;4746;35.664;139.738;2023-02-11T15:06:38;101287.53;;;15.07;38.73
9415;BME280;4746;35.664;139.738;2023-02-11T15:09:25;101290.06;;;15.02;38.59
9415;BME280;4746;35.664;139.738;2023-02-11T15:11:57;101281.41;;;14.91;38.93
9415;BME280;4746;35.664;139.738;2023-02-11T15:14:32;101291.72;;;14.91;38.60
9415;BME280;4746;35.664;139.738;2023-02-11T15:17:07;101287.34;;;14.83;38.90
9415;BME280;4746;35.664;139.738;2023-02-11T15:19:44;101287.31;;;14.75;39.06
9415;BME280;4746;35.664;139.738;2023-02-11T15:22:32;101277.84;;;14.71;39.12
9415;BME280;4746;35.664;139.738;2023-02-11T15:25:12;101272.59;;;14.64;39.35
9415;BME280;4746;35.664;139.738;2023-02-11T15:27:46;101263.13;;;14.61;39.47
9415;BME280;4746;35.664;139.738;2023-02-11T15:33:00;101264.81;;;14.58;39.88
9415;BME280;4746;35.664;139.738;2023-02-11T15:35:34;101263.06;;;14.53;39.81
9415;BME280;4746;35.664;139.738;2023-02-11T15:38:04;101274.19;;;14.46;39.82
9415;BME280;4746;35.664;139.738;2023-02-11T15:40:35;101275.88;;;14.42;39.35
9415;BME280;4746;35.664;139.738;2023-02-11T15:43:06;101277.56;;;14.39;40.08
9415;BME280;4746;35.664;139.738;2023-02-11T15:45:43;101280.13;;;14.36;39.87
9415;BME280;4746;35.664;139.738;2023-02-11T15:48:26;101279.22;;;14.34;39.83
9415;BME280;4746;35.664;139.738;2023-02-11T15:51:22;101275.75;;;14.29;39.81